Time;durP1;ratioP1;P1;durP2;ratioP2;P2;SDS_P1;SDS_P2;PMS_P1;PMS_P2;Temp;Humidity;BMP_temperature;BMP_pressure;BME280_temperature;BME280_humidity;BME280_pressure;Samples;Min_cycle;Max_cycle;Signal;HPM_P1;HPM_P2
2021/08/06 00:00:13;;;;;;;;;;;;;;;25.36;43.44;95392.66;5075827;28;19959;-66
2021/08/06 00:02:38;;;;;;;;;;;;;;;25.54;42.57;95383.50;5075600;28;19913;-66
2021/08/06 00:05:04;;;;;;;;;;;;;;;25.74;41.98;95379.31;5075612;28;19913;-66
2021/08/06 00:07:29;;;;;;;;;;;;;;;25.90;41.92;95379.34;5075566;28;19919;-66
2021/08/06 00:09:55;;;;;;;;;;;;;;;26.03;41.54;95376.03;5075515;28;19919;-66
2021/08/06 00:12:20;;;;;;;;;;;;;;;26.06;41.79;95381.00;5075498;28;19916;-66
2021/08/06 00:14:46;;;;;;;;;;;;;;;26.12;41.78;95375.75;5075440;28;20370;-66
2021/08/06 00:17:11;;;;;;;;;;;;;;;26.17;41.60;95369.00;5075334;28;20393;-66
2021/08/06 00:19:37;;;;;;;;;;;;;;;26.25;41.16;95366.25;5075185;28;19913;-66
2021/08/06 00:22:03;;;;;;;;;;;;;;;26.25;41.01;95367.06;5075350;28;20503;-66
2021/08/06 00:24:28;;;;;;;;;;;;;;;26.25;41.02;95369.72;5075315;28;19912;-67
2021/08/06 00:26:53;;;;;;;;;;;;;;;26.34;40.75;95361.66;5075243;28;19916;-66
2021/08/06 00:29:19;;;;;;;;;;;;;;;26.35;40.83;95355.25;5074589;28;19915;-66
2021/08/06 00:31:44;;;;;;;;;;;;;;;26.35;40.43;95368.66;5075074;28;19916;-66
2021/08/06 00:34:09;;;;;;;;;;;;;;;26.34;40.17;95354.41;5074995;28;20284;-66
2021/08/06 00:36:35;;;;;;;;;;;;;;;26.36;39.92;95365.78;5074989;28;19970;-66
2021/08/06 00:39:00;;;;;;;;;;;;;;;26.33;40.11;95371.53;5075032;28;19981;-66
2021/08/06 00:41:26;;;;;;;;;;;;;;;26.32;40.24;95372.56;5074790;28;19912;-66
2021/08/06 00:43:51;;;;;;;;;;;;;;;26.23;40.42;95369.09;5074723;28;19964;-66
2021/08/06 00:46:17;;;;;;;;;;;;;;;26.22;39.92;95369.28;5074922;28;20376;-66
2021/08/06 00:48:43;;;;;;;;;;;;;;;26.19;39.78;95380.38;5074767;28;19991;-66
2021/08/06 00:51:08;;;;;;;;;;;;;;;26.15;40.11;95376.41;5074805;28;19920;-66
2021/08/06 00:53:34;;;;;;;;;;;;;;;26.11;40.21;95374.09;5074690;28;19912;-66
2021/08/06 00:55:59;;;;;;;;;;;;;;;26.17;39.86;95374.34;5074573;28;19908;-66
2021/08/06 00:58:25;;;;;;;;;;;;;;;26.12;39.78;95369.56;5074459;28;19965;-67
2021/08/06 01:00:50;;;;;;;;;;;;;;;26.17;39.84;95366.31;5074378;28;19924;-66
2021/08/06 01:03:22;;;;;;;;;;;;;;;26.07;39.51;95369.28;5074461;28;20015;-66
2021/08/06 01:05:52;;;;;;;;;;;;;;;26.04;39.71;95375.00;5074383;28;19916;-66
2021/08/06 01:08:21;;;;;;;;;;;;;;;26.08;40.00;95384.34;5074279;28;19935;-66
2021/08/06 01:10:57;;;;;;;;;;;;;;;26.01;40.77;95367.34;5074308;28;19919;-66
2021/08/06 01:13:30;;;;;;;;;;;;;;;25.97;40.09;95362.34;5074251;28;20013;-66
2021/08/06 01:15:56;;;;;;;;;;;;;;;25.86;40.25;95360.94;5074203;28;19965;-66
2021/08/06 01:18:22;;;;;;;;;;;;;;;25.83;40.05;95369.34;5074129;28;19920;-66
2021/08/06 01:20:53;;;;;;;;;;;;;;;25.84;39.87;95359.47;5074175;28;20321;-66
2021/08/06 01:23:27;;;;;;;;;;;;;;;25.81;39.96;95339.28;5074091;28;19912;-66
2021/08/06 01:25:54;;;;;;;;;;;;;;;25.75;40.28;95323.94;5074030;28;19920;-66
2021/08/06 01:28:21;;;;;;;;;;;;;;;25.77;40.90;95287.13;5074018;28;19912;-66
2021/08/06 01:30:46;;;;;;;;;;;;;;;25.74;40.01;95252.69;5073847;28;20366;-66
2021/08/06 01:33:13;;;;;;;;;;;;;;;25.71;39.76;95259.22;5073894;28;19919;-67
2021/08/06 01:35:38;;;;;;;;;;;;;;;25.73;39.47;95272.41;5073998;28;19919;-67
2021/08/06 01:38:04;;;;;;;;;;;;;;;25.76;39.11;95292.66;5073809;28;19912;-67
2021/08/06 01:40:36;;;;;;;;;;;;;;;25.78;39.24;95309.34;5073047;28;19912;-66
2021/08/06 01:43:25;;;;;;;;;;;;;;;25.84;39.48;95320.16;5073587;28;19921;-66
2021/08/06 01:45:55;;;;;;;;;;;;;;;25.82;39.16;95330.22;5073791;28;20003;-66
2021/08/06 01:48:24;;;;;;;;;;;;;;;25.91;38.85;95328.28;5073629;28;19912;-66
2021/08/06 01:50:50;;;;;;;;;;;;;;;25.96;38.97;95312.50;5073790;28;20297;-67
2021/08/06 01:53:17;;;;;;;;;;;;;;;25.92;38.74;95310.38;5073580;28;19913;-67
2021/08/06 01:55:55;;;;;;;;;;;;;;;25.95;38.92;95308.13;5073495;28;20374;-66
2021/08/06 01:58:22;;;;;;;;;;;;;;;26.01;39.03;95324.50;5073501;28;19919;-66
2021/08/06 02:00:47;;;;;;;;;;;;;;;26.06;38.67;95322.91;5073528;28;19916;-66
2021/08/06 02:03:14;;;;;;;;;;;;;;;26.11;39.59;95317.00;5073646;28;19912;-66
2021/08/06 02:05:40;;;;;;;;;;;;;;;26.15;39.83;95328.19;5073544;28;20263;-66
2021/08/06 02:08:08;;;;;;;;;;;;;;;26.05;39.28;95317.75;5073559;28;19912;-66
2021/08/06 02:10:33;;;;;;;;;;;;;;;25.96;38.80;95309.81;5073346;28;20393;-66
2021/08/06 02:12:59;;;;;;;;;;;;;;;25.97;39.56;95305.28;5073510;28;19912;-66
2021/08/06 02:15:24;;;;;;;;;;;;;;;25.86;38.72;95302.03;5073419;28;20375;-66
2021/08/06 02:17:51;;;;;;;;;;;;;;;25.88;38.83;95303.72;5073262;28;19919;-66
2021/08/06 02:20:17;;;;;;;;;;;;;;;25.90;38.78;95296.31;5055444;28;20270;-66
2021/08/06 02:22:44;;;;;;;;;;;;;;;25.88;38.89;95299.19;5073400;28;19913;-66
2021/08/06 02:25:10;;;;;;;;;;;;;;;25.87;39.08;95286.81;5073328;28;19912;-66
2021/08/06 02:27:37;;;;;;;;;;;;;;;25.83;38.99;95289.03;5073434;28;19916;-66
2021/08/06 02:30:03;;;;;;;;;;;;;;;25.82;38.81;95289.22;5073239;28;19919;-66
2021/08/06 02:32:29;;;;;;;;;;;;;;;25.80;38.97;95296.63;5073153;28;20428;-66
2021/08/06 02:34:55;;;;;;;;;;;;;;;25.78;38.84;95304.84;5073248;28;19913;-66
2021/08/06 02:37:20;;;;;;;;;;;;;;;25.83;38.88;95306.97;5073298;28;20107;-66
2021/08/06 02:39:46;;;;;;;;;;;;;;;25.75;39.63;95302.50;5073177;28;19999;-66
2021/08/06 02:42:11;;;;;;;;;;;;;;;25.70;38.92;95311.09;5072964;28;20346;-67
2021/08/06 02:44:37;;;;;;;;;;;;;;;25.64;39.44;95303.78;5073123;28;20015;-66
2021/08/06 02:47:04;;;;;;;;;;;;;;;25.62;39.64;95311.19;5073068;28;19959;-67
2021/08/06 02:49:31;;;;;;;;;;;;;;;25.60;39.51;95314.06;5073048;28;19912;-67
2021/08/06 02:51:57;;;;;;;;;;;;;;;25.55;40.20;95304.88;5073936;28;20007;-66
2021/08/06 02:54:23;;;;;;;;;;;;;;;25.45;40.34;95300.63;5076958;28;19913;-66
2021/08/06 02:56:48;;;;;;;;;;;;;;;25.36;40.72;95296.34;5076910;28;19913;-66
2021/08/06 02:59:13;;;;;;;;;;;;;;;25.23;40.91;95297.78;5076772;28;19913;-66
2021/08/06 03:01:39;;;;;;;;;;;;;;;25.30;41.53;95308.63;5076711;28;20002;-66
2021/08/06 03:04:04;;;;;;;;;;;;;;;25.28;41.31;95307.94;5076733;28;20006;-66
2021/08/06 03:06:30;;;;;;;;;;;;;;;25.25;41.22;95321.69;5076805;28;19919;-67
2021/08/06 03:08:56;;;;;;;;;;;;;;;25.29;41.75;95325.69;5076647;28;19955;-66
2021/08/06 03:11:21;;;;;;;;;;;;;;;25.23;41.63;95321.06;5076514;28;19990;-66
2021/08/06 03:13:46;;;;;;;;;;;;;;;25.06;41.39;95325.69;5076489;28;19912;-66
2021/08/06 03:16:12;;;;;;;;;;;;;;;25.03;41.62;95334.06;5076417;28;19912;-66
2021/08/06 03:18:37;;;;;;;;;;;;;;;25.04;41.80;95330.41;5076301;28;19928;-66
2021/08/06 03:21:03;;;;;;;;;;;;;;;25.06;42.57;95331.03;5076457;28;20393;-66
2021/08/06 03:23:28;;;;;;;;;;;;;;;24.93;42.40;95321.78;5076427;28;19920;-66
2021/08/06 03:25:54;;;;;;;;;;;;;;;24.79;42.84;95317.16;5076256;28;20320;-66
2021/08/06 03:28:19;;;;;;;;;;;;;;;24.63;42.96;95312.75;5076267;28;19913;-66
2021/08/06 03:30:45;;;;;;;;;;;;;;;24.51;42.59;95317.69;5076361;28;19912;-66
2021/08/06 03:33:10;;;;;;;;;;;;;;;24.53;42.82;95313.00;5076310;28;19916;-67
2021/08/06 03:35:36;;;;;;;;;;;;;;;24.53;42.43;95321.81;5076133;28;19912;-67
2021/08/06 03:38:11;;;;;;;;;;;;;;;24.59;44.30;95325.66;5076004;28;20274;-67
2021/08/06 03:40:36;;;;;;;;;;;;;;;24.57;44.94;95331.19;5076030;28;19916;-66
2021/08/06 03:43:02;;;;;;;;;;;;;;;24.48;44.38;95334.91;5075860;28;19916;-66
2021/08/06 03:45:27;;;;;;;;;;;;;;;24.49;45.12;95339.22;5075947;28;19912;-66
2021/08/06 03:47:54;;;;;;;;;;;;;;;24.47;45.22;95342.06;5075905;28;19960;-66
2021/08/06 03:50:19;;;;;;;;;;;;;;;24.45;45.45;95328.06;5075883;28;19912;-66
2021/08/06 03:52:44;;;;;;;;;;;;;;;24.39;45.31;95318.09;5075812;28;19919;-67
2021/08/06 03:55:10;;;;;;;;;;;;;;;24.42;46.26;95317.72;5075728;28;19916;-66
2021/08/06 03:57:46;;;;;;;;;;;;;;;24.40;46.03;95316.22;5075859;28;19952;-66
2021/08/06 04:00:12;;;;;;;;;;;;;;;24.37;46.71;95325.44;5075820;28;19912;-66
2021/08/06 04:02:38;;;;;;;;;;;;;;;24.29;46.49;95331.63;5075664;28;20291;-67
2021/08/06 04:05:03;;;;;;;;;;;;;;;24.21;46.23;95335.19;5074706;28;19916;-67
2021/08/06 04:07:29;;;;;;;;;;;;;;;24.16;45.90;95334.88;5075475;28;19912;-67
2021/08/06 04:09:54;;;;;;;;;;;;;;;24.10;45.95;95332.84;5075501;28;19912;-66
2021/08/06 04:12:19;;;;;;;;;;;;;;;24.08;46.15;95332.22;5075515;28;19912;-66
2021/08/06 04:14:45;;;;;;;;;;;;;;;24.00;46.04;95329.56;5075462;28;19912;-66
2021/08/06 04:17:10;;;;;;;;;;;;;;;24.25;47.60;95329.47;5075471;28;19916;-66
2021/08/06 04:19:36;;;;;;;;;;;;;;;24.50;45.99;95329.38;5075320;28;19999;-67
2021/08/06 04:22:01;;;;;;;;;;;;;;;24.79;45.91;95317.16;5057334;28;20392;-67
2021/08/06 04:24:26;;;;;;;;;;;;;;;25.01;45.40;95325.41;5075287;28;20259;-66
2021/08/06 04:26:52;;;;;;;;;;;;;;;25.30;44.67;95326.50;5075242;28;19951;-66
2021/08/06 04:29:17;;;;;;;;;;;;;;;25.68;44.68;95329.22;5075275;28;19916;-66
2021/08/06 04:31:42;;;;;;;;;;;;;;;26.06;44.19;95330.94;5075082;28;20014;-66
2021/08/06 04:34:08;;;;;;;;;;;;;;;26.45;43.50;95326.31;5075100;28;20369;-66
2021/08/06 04:36:33;;;;;;;;;;;;;;;26.75;42.03;95323.56;5075021;28;19957;-66
2021/08/06 04:38:58;;;;;;;;;;;;;;;26.94;42.01;95320.44;5074864;28;20286;-67
2021/08/06 04:41:24;;;;;;;;;;;;;;;27.00;42.58;95327.75;5075030;28;19912;-67
2021/08/06 04:43:49;;;;;;;;;;;;;;;27.05;43.48;95335.22;5074789;28;19920;-66
2021/08/06 04:46:15;;;;;;;;;;;;;;;27.02;41.45;95335.63;5074761;28;19913;-66
2021/08/06 04:48:40;;;;;;;;;;;;;;;26.95;42.64;95347.09;5074734;28;19912;-66
2021/08/06 04:51:05;;;;;;;;;;;;;;;26.97;41.92;95345.03;5074672;28;19913;-67
2021/08/06 04:53:33;;;;;;;;;;;;;;;27.00;44.29;95333.94;5074714;28;19999;-65
2021/08/06 04:55:59;;;;;;;;;;;;;;;26.93;44.76;95326.81;5074486;28;19916;-67
2021/08/06 04:58:24;;;;;;;;;;;;;;;26.73;42.53;95328.28;5074584;28;19913;-66
2021/08/06 05:00:50;;;;;;;;;;;;;;;26.67;42.43;95333.56;5074550;28;20350;-66
2021/08/06 05:03:15;;;;;;;;;;;;;;;26.62;42.44;95323.41;5074492;28;19926;-66
2021/08/06 05:05:41;;;;;;;;;;;;;;;26.63;42.33;95327.75;5074378;28;19959;-67
2021/08/06 05:08:07;;;;;;;;;;;;;;;26.66;43.71;95329.25;5074407;28;19966;-67
2021/08/06 05:10:32;;;;;;;;;;;;;;;26.61;43.24;95333.28;5074323;28;19912;-66
2021/08/06 05:12:58;;;;;;;;;;;;;;;26.55;44.67;95336.72;5074296;28;19913;-67
2021/08/06 05:15:23;;;;;;;;;;;;;;;26.60;45.54;95334.31;5074232;28;20279;-66
2021/08/06 05:17:49;;;;;;;;;;;;;;;26.66;46.63;95332.72;5074134;28;19982;-66
2021/08/06 05:20:15;;;;;;;;;;;;;;;26.74;48.64;95337.16;5074078;28;19919;-66
2021/08/06 05:22:40;;;;;;;;;;;;;;;26.83;47.14;95333.34;5074026;28;19958;-66
2021/08/06 05:25:06;;;;;;;;;;;;;;;26.91;46.41;95335.03;5074037;28;19919;-66
2021/08/06 05:27:31;;;;;;;;;;;;;;;27.05;43.32;95349.47;5074023;28;19923;-67
2021/08/06 05:29:57;;;;;;;;;;;;;;;27.25;50.04;95362.25;5073986;28;20313;-66
2021/08/06 05:32:22;;;;;;;;;;;;;;;27.39;49.12;95368.53;5073969;28;19958;-66
2021/08/06 05:34:48;;;;;;;;;;;;;;;27.61;46.42;95376.59;5073962;28;19967;-67
2021/08/06 05:37:13;;;;;;;;;;;;;;;27.86;44.69;95381.53;5073946;28;19935;-67
2021/08/06 05:39:38;;;;;;;;;;;;;;;27.91;41.47;95381.81;5073827;28;19919;-67
2021/08/06 05:42:04;;;;;;;;;;;;;;;27.97;40.71;95372.13;5073555;28;19920;-67
2021/08/06 05:44:29;;;;;;;;;;;;;;;27.93;39.87;95366.31;5073809;28;19919;-67
2021/08/06 05:46:55;;;;;;;;;;;;;;;28.16;43.82;95367.06;5073868;28;19955;-67
2021/08/06 05:49:20;;;;;;;;;;;;;;;28.50;42.26;95357.31;5073686;28;19913;-67
2021/08/06 05:51:46;;;;;;;;;;;;;;;28.70;38.88;95357.41;5073693;28;19912;-67
2021/08/06 05:54:11;;;;;;;;;;;;;;;29.00;38.98;95361.66;5073633;28;19916;-67
2021/08/06 05:56:36;;;;;;;;;;;;;;;29.30;38.01;95350.53;5073587;28;19920;-67
2021/08/06 05:59:02;;;;;;;;;;;;;;;29.75;39.34;95349.94;5073535;28;19913;-67
2021/08/06 06:01:27;;;;;;;;;;;;;;;30.36;37.04;95352.50;5073604;28;20003;-67
2021/08/06 06:03:55;;;;;;;;;;;;;;;30.81;35.05;95356.28;5073487;28;19924;-67
2021/08/06 06:06:20;;;;;;;;;;;;;;;30.91;34.33;95353.13;5073363;28;19912;-67
2021/08/06 06:08:46;;;;;;;;;;;;;;;30.68;33.62;95359.03;5073483;28;19919;-67
2021/08/06 06:11:11;;;;;;;;;;;;;;;30.50;34.82;95358.69;5073366;28;19917;-67
2021/08/06 06:13:37;;;;;;;;;;;;;;;30.39;35.12;95375.53;5073539;28;19912;-67
2021/08/06 06:16:02;;;;;;;;;;;;;;;30.55;35.34;95370.72;5073417;28;19913;-67
2021/08/06 06:18:28;;;;;;;;;;;;;;;30.71;35.98;95364.00;5073318;28;19912;-67
2021/08/06 06:20:53;;;;;;;;;;;;;;;30.96;34.76;95369.50;5073356;28;19916;-67
2021/08/06 06:23:19;;;;;;;;;;;;;;;31.27;33.45;95370.56;5073292;28;19912;-67
2021/08/06 06:25:45;;;;;;;;;;;;;;;31.50;33.38;95371.88;5073336;28;20293;-67
2021/08/06 06:28:10;;;;;;;;;;;;;;;31.75;34.05;95367.50;5076207;28;19919;-67
2021/08/06 06:30:36;;;;;;;;;;;;;;;31.98;33.12;95369.63;5077446;28;19913;-67
2021/08/06 06:33:03;;;;;;;;;;;;;;;32.45;33.10;95365.59;5077478;28;19912;-67
2021/08/06 06:35:29;;;;;;;;;;;;;;;32.68;31.63;95357.88;5077489;28;19912;-67
2021/08/06 06:37:55;;;;;;;;;;;;;;;32.84;32.53;95362.63;5077209;28;19917;-67
2021/08/06 06:40:21;;;;;;;;;;;;;;;33.00;32.17;95373.88;5077132;28;19919;-67
2021/08/06 06:42:47;;;;;;;;;;;;;;;33.02;31.04;95369.88;5077019;28;19939;-67
2021/08/06 06:45:12;;;;;;;;;;;;;;;33.35;31.21;95378.59;5077136;28;19912;-67
2021/08/06 06:47:42;;;;;;;;;;;;;;;33.40;30.49;95373.34;5077136;28;19973;-67
2021/08/06 06:50:09;;;;;;;;;;;;;;;33.58;30.58;95370.75;5077010;28;19918;-67
2021/08/06 06:52:35;;;;;;;;;;;;;;;33.92;30.91;95387.34;5077042;28;19919;-67
2021/08/06 06:55:01;;;;;;;;;;;;;;;34.02;29.76;95368.59;5077014;28;20332;-67
2021/08/06 06:57:26;;;;;;;;;;;;;;;34.24;31.19;95373.44;5076819;28;20274;-67
2021/08/06 06:59:53;;;;;;;;;;;;;;;34.47;28.97;95366.31;5076782;28;19916;-66
2021/08/06 07:02:18;;;;;;;;;;;;;;;34.51;29.57;95367.50;5076766;28;19912;-67
2021/08/06 07:04:44;;;;;;;;;;;;;;;34.37;28.42;95366.91;5076694;28;19989;-67
2021/08/06 07:07:09;;;;;;;;;;;;;;;34.54;28.35;95372.44;5076776;28;20006;-67
2021/08/06 07:09:34;;;;;;;;;;;;;;;34.53;28.54;95375.38;5076549;28;20336;-65
2021/08/06 07:12:00;;;;;;;;;;;;;;;34.69;28.08;95373.00;5076571;28;20003;-67
2021/08/06 07:14:25;;;;;;;;;;;;;;;34.65;28.04;95368.09;5076549;28;19935;-67
2021/08/06 07:16:51;;;;;;;;;;;;;;;34.65;28.30;95369.94;5076556;28;19947;-67
2021/08/06 07:19:16;;;;;;;;;;;;;;;34.81;28.21;95373.81;5076463;28;19912;-67
2021/08/06 07:21:46;;;;;;;;;;;;;;;34.79;27.98;95370.50;5076389;28;19923;-67
2021/08/06 07:24:11;;;;;;;;;;;;;;;34.60;28.34;95376.06;5076273;28;20008;-67
2021/08/06 07:26:37;;;;;;;;;;;;;;;34.99;29.13;95380.94;5076342;28;19954;-67
2021/08/06 07:29:02;;;;;;;;;;;;;;;34.91;27.72;95379.44;5076452;28;19935;-67
2021/08/06 07:31:28;;;;;;;;;;;;;;;35.00;27.94;95376.34;5058560;28;19908;-67
2021/08/06 07:33:53;;;;;;;;;;;;;;;34.95;27.42;95382.50;5076160;28;19919;-67
2021/08/06 07:36:19;;;;;;;;;;;;;;;34.79;27.76;95387.63;5058526;28;19923;-67
2021/08/06 07:38:44;;;;;;;;;;;;;;;34.31;28.97;95388.75;5074831;28;19912;-67
2021/08/06 07:41:10;;;;;;;;;;;;;;;34.11;28.71;95381.78;5076166;28;20350;-67
2021/08/06 07:43:35;;;;;;;;;;;;;;;34.05;28.26;95380.84;5075875;28;19917;-67
2021/08/06 07:46:01;;;;;;;;;;;;;;;34.21;28.67;95379.34;5076108;28;19965;-67
2021/08/06 07:48:26;;;;;;;;;;;;;;;34.28;27.96;95382.75;5075954;28;20298;-67
2021/08/06 07:50:52;;;;;;;;;;;;;;;34.04;28.61;95384.63;5075803;28;20023;-67
2021/08/06 07:53:17;;;;;;;;;;;;;;;33.83;29.35;95388.75;5075952;28;19913;-67
2021/08/06 07:55:42;;;;;;;;;;;;;;;33.83;28.82;95377.91;5075791;28;19935;-67
2021/08/06 07:58:08;;;;;;;;;;;;;;;34.18;30.08;95382.50;5075679;28;19912;-67
2021/08/06 08:00:34;;;;;;;;;;;;;;;34.44;28.78;95384.97;5075735;28;19916;-67
2021/08/06 08:02:59;;;;;;;;;;;;;;;34.45;28.19;95379.28;5075790;28;20733;-67
2021/08/06 08:05:25;;;;;;;;;;;;;;;34.20;28.22;95369.56;5075612;28;20266;-67
2021/08/06 08:07:50;;;;;;;;;;;;;;;34.28;28.59;95377.31;5075707;28;20414;-67
2021/08/06 08:10:15;;;;;;;;;;;;;;;34.46;28.06;95375.50;5075446;28;19913;-67
2021/08/06 08:12:41;;;;;;;;;;;;;;;34.43;28.47;95375.97;5057513;28;20006;-67
2021/08/06 08:15:07;;;;;;;;;;;;;;;34.59;28.00;95379.03;5075574;28;19935;-67
2021/08/06 08:17:33;;;;;;;;;;;;;;;34.77;28.39;95372.63;5057549;28;20294;-67
2021/08/06 08:19:59;;;;;;;;;;;;;;;35.05;28.36;95384.56;5075406;28;20381;-67
2021/08/06 08:22:24;;;;;;;;;;;;;;;35.23;28.11;95382.75;5075307;28;19912;-67
2021/08/06 08:24:50;;;;;;;;;;;;;;;35.28;27.06;95386.38;5075296;28;19935;-67
2021/08/06 08:27:17;;;;;;;;;;;;;;;35.48;26.71;95384.28;5075273;28;19966;-67
2021/08/06 08:29:45;;;;;;;;;;;;;;;35.38;26.81;95388.47;5075351;28;19920;-67
2021/08/06 08:32:13;;;;;;;;;;;;;;;34.84;27.00;95386.91;5075230;28;19958;-67
2021/08/06 08:34:38;;;;;;;;;;;;;;;34.76;27.05;95385.38;5075060;28;20362;-67
2021/08/06 08:37:03;;;;;;;;;;;;;;;34.46;27.42;95388.28;5075040;28;19920;-67
2021/08/06 08:39:29;;;;;;;;;;;;;;;33.86;27.85;95382.84;5074907;28;19919;-67
2021/08/06 08:41:55;;;;;;;;;;;;;;;33.94;28.12;95393.34;5074780;28;19912;-67
2021/08/06 08:44:20;;;;;;;;;;;;;;;33.68;28.16;95389.19;5074918;28;19912;-67
2021/08/06 08:46:47;;;;;;;;;;;;;;;33.81;28.76;95399.81;5074812;28;19912;-66
2021/08/06 08:49:13;;;;;;;;;;;;;;;33.85;27.24;95392.84;5074747;28;19912;-67
2021/08/06 08:51:39;;;;;;;;;;;;;;;33.80;28.08;95392.75;5074427;28;19908;-66
2021/08/06 08:54:05;;;;;;;;;;;;;;;33.58;28.92;95411.41;5074707;28;19916;-66
2021/08/06 08:56:31;;;;;;;;;;;;;;;33.53;29.55;95402.09;5074651;28;20030;-66
2021/08/06 08:58:57;;;;;;;;;;;;;;;33.69;29.45;95397.09;5074438;28;19923;-66
2021/08/06 09:01:22;;;;;;;;;;;;;;;33.95;28.76;95397.69;5074626;28;20001;-66
2021/08/06 09:03:52;;;;;;;;;;;;;;;33.85;29.01;95395.56;5074622;28;20255;-66
2021/08/06 09:06:17;;;;;;;;;;;;;;;33.75;28.76;95398.03;5074501;28;20259;-66
2021/08/06 09:08:43;;;;;;;;;;;;;;;33.22;30.16;95404.00;5074505;28;20007;-66
2021/08/06 09:11:27;;;;;;;;;;;;;;;33.17;29.64;95379.53;5074316;28;20003;-66
2021/08/06 09:13:53;;;;;;;;;;;;;;;33.33;30.01;95397.00;5074267;28;20013;-66
2021/08/06 09:16:19;;;;;;;;;;;;;;;33.29;29.79;95390.38;5074406;28;19955;-66
2021/08/06 09:18:46;;;;;;;;;;;;;;;33.30;30.39;95386.63;5074263;28;19916;-66
2021/08/06 09:21:16;;;;;;;;;;;;;;;33.29;30.15;95379.56;5056312;28;19920;-66
2021/08/06 09:24:01;;;;;;;;;;;;;;;33.33;30.36;95385.31;5052087;28;19924;-66
2021/08/06 09:26:26;;;;;;;;;;;;;;;33.34;29.56;95374.25;5052079;28;19913;-66
2021/08/06 09:31:56;;;;;;;;;;;;;;;33.48;31.09;95366.75;5051998;28;19998;-67
2021/08/06 09:34:28;;;;;;;;;;;;;;;33.38;29.12;95375.44;5051837;28;19912;-66
2021/08/06 09:37:07;;;;;;;;;;;;;;;33.45;28.99;95364.50;5051924;28;19955;-66
2021/08/06 09:39:35;;;;;;;;;;;;;;;33.05;29.97;95371.34;5035069;28;20294;-66
2021/08/06 09:42:01;;;;;;;;;;;;;;;33.11;30.53;95375.03;5051594;28;20540;-66
2021/08/06 09:44:28;;;;;;;;;;;;;;;33.31;30.10;95363.88;5051903;28;19995;-67
2021/08/06 09:46:53;;;;;;;;;;;;;;;33.32;30.73;95362.00;5051739;28;19920;-66
2021/08/06 09:49:53;;;;;;;;;;;;;;;33.42;29.21;95364.97;5051630;28;19913;-66
2021/08/06 09:52:47;;;;;;;;;;;;;;;33.26;29.05;95359.16;5011984;28;19920;-66
2021/08/06 09:56:08;;;;;;;;;;;;;;;33.30;29.39;95340.56;4999058;28;19922;-66
2021/08/06 10:02:16;;;;;;;;;;;;;;;33.28;29.09;95340.81;4952949;28;20013;-66
2021/08/06 10:05:20;;;;;;;;;;;;;;;32.81;29.46;95341.47;4953518;29;19918;-66
2021/08/06 10:07:50;;;;;;;;;;;;;;;32.93;30.75;95344.22;4953498;29;19965;-66
2021/08/06 10:10:23;;;;;;;;;;;;;;;32.86;29.68;95348.88;4998080;28;19916;-66
2021/08/06 10:12:49;;;;;;;;;;;;;;;32.38;30.19;95337.78;5011816;28;19922;-66
2021/08/06 10:15:15;;;;;;;;;;;;;;;31.95;30.53;95326.00;5029057;28;19913;-66
2021/08/06 10:17:41;;;;;;;;;;;;;;;31.79;32.11;95322.81;5031529;28;20016;-66
2021/08/06 10:20:08;;;;;;;;;;;;;;;31.82;31.81;95318.81;5031341;28;20375;-66
2021/08/06 10:22:34;;;;;;;;;;;;;;;31.85;32.50;95326.47;5033769;28;19939;-66
2021/08/06 10:28:03;;;;;;;;;;;;;;;32.01;31.09;95322.38;5073437;28;20038;-66
2021/08/06 10:34:02;;;;;;;;;;;;;;;31.85;31.12;95318.38;5031346;28;19924;-66
2021/08/06 10:36:50;;;;;;;;;;;;;;;31.72;32.15;95314.75;5030543;28;20319;-66
2021/08/06 10:39:31;;;;;;;;;;;;;;;31.57;31.31;95320.50;5031033;28;19920;-66
2021/08/06 10:41:57;;;;;;;;;;;;;;;31.64;32.39;95326.66;5031153;28;20403;-66
2021/08/06 10:44:23;;;;;;;;;;;;;;;31.80;31.82;95321.75;5030997;28;20011;-66
2021/08/06 10:47:01;;;;;;;;;;;;;;;32.06;31.23;95317.16;5031011;28;19939;-66
2021/08/06 10:49:27;;;;;;;;;;;;;;;32.05;31.25;95315.47;5031183;28;19920;-66
2021/08/06 10:52:11;;;;;;;;;;;;;;;31.99;31.18;95316.41;5014609;28;20279;-66
2021/08/06 10:54:37;;;;;;;;;;;;;;;32.01;30.95;95323.22;5030959;28;20375;-66
2021/08/06 10:57:31;;;;;;;;;;;;;;;31.78;32.11;95318.44;5030952;28;19913;-66
2021/08/06 10:59:57;;;;;;;;;;;;;;;31.69;31.07;95317.09;5022385;28;19917;-66
2021/08/06 11:02:39;;;;;;;;;;;;;;;31.92;32.88;95319.16;5031081;28;20267;-66
2021/08/06 11:05:23;;;;;;;;;;;;;;;32.03;31.52;95317.59;5066724;28;19915;-66
2021/08/06 11:07:49;;;;;;;;;;;;;;;32.10;31.19;95314.81;5072954;28;19916;-66
2021/08/06 11:10:33;;;;;;;;;;;;;;;32.09;32.02;95315.88;5072824;28;19908;-66
2021/08/06 11:12:58;;;;;;;;;;;;;;;31.65;31.62;95308.56;5073738;28;19919;-66
2021/08/06 11:15:43;;;;;;;;;;;;;;;31.60;31.58;95303.03;5076712;28;19916;-67
2021/08/06 11:18:09;;;;;;;;;;;;;;;31.39;33.31;95299.66;5076376;28;20362;-66
2021/08/06 11:20:38;;;;;;;;;;;;;;;31.19;33.50;95308.75;5076396;28;19919;-66
2021/08/06 11:23:09;;;;;;;;;;;;;;;30.76;33.39;95308.38;5076442;28;19918;-66
2021/08/06 11:25:35;;;;;;;;;;;;;;;30.33;34.05;95309.81;5076542;28;20333;-66
2021/08/06 11:28:01;;;;;;;;;;;;;;;29.99;35.54;95307.19;5076402;28;19912;-66
2021/08/06 11:30:34;;;;;;;;;;;;;;;30.06;35.60;95319.81;5076417;28;19919;-66
2021/08/06 11:33:01;;;;;;;;;;;;;;;29.60;35.94;95331.31;5076484;28;19912;-66
2021/08/06 11:35:32;;;;;;;;;;;;;;;29.48;36.39;95330.22;5076343;28;20354;-66
2021/08/06 11:38:17;;;;;;;;;;;;;;;29.07;36.83;95313.25;5076254;28;20274;-66
2021/08/06 11:40:44;;;;;;;;;;;;;;;29.06;37.00;95316.94;5075557;28;19919;-66
2021/08/06 11:43:10;;;;;;;;;;;;;;;28.97;37.78;95322.53;5075871;28;19997;-66
2021/08/06 11:45:36;;;;;;;;;;;;;;;29.06;38.65;95323.19;5076160;28;19952;-66
2021/08/06 11:48:02;;;;;;;;;;;;;;;29.03;37.18;95330.81;5076055;28;20374;-66
2021/08/06 11:50:42;;;;;;;;;;;;;;;28.84;36.95;95322.47;5076103;28;19912;-66
2021/08/06 11:53:25;;;;;;;;;;;;;;;28.94;37.13;95314.88;5075897;28;20289;-66
2021/08/06 11:55:52;;;;;;;;;;;;;;;29.20;37.06;95318.63;5075880;28;19912;-66
2021/08/06 11:58:35;;;;;;;;;;;;;;;29.45;36.48;95325.25;5075661;28;19908;-67
2021/08/06 12:01:01;;;;;;;;;;;;;;;29.27;36.26;95321.31;5075756;28;19916;-66
2021/08/06 12:03:27;;;;;;;;;;;;;;;29.27;37.31;95326.72;5075749;28;20313;-66
2021/08/06 12:06:11;;;;;;;;;;;;;;;29.05;36.73;95324.22;5075755;28;19912;-66
2021/08/06 12:08:37;;;;;;;;;;;;;;;28.88;36.83;95326.41;5075719;28;19919;-66
2021/08/06 12:11:06;;;;;;;;;;;;;;;28.73;37.17;95335.50;5075547;28;20365;-66
2021/08/06 12:13:32;;;;;;;;;;;;;;;28.70;36.84;95335.91;5075543;28;20011;-66
2021/08/06 12:16:01;;;;;;;;;;;;;;;28.71;37.42;95332.16;5075527;28;19918;-66
2021/08/06 12:18:27;;;;;;;;;;;;;;;28.71;36.94;95334.84;5075381;28;20003;-66
2021/08/06 12:20:54;;;;;;;;;;;;;;;28.79;36.26;95339.22;5075340;28;19998;-66
2021/08/06 12:23:20;;;;;;;;;;;;;;;28.76;36.38;95336.94;5075281;28;20023;-66
2021/08/06 12:26:01;;;;;;;;;;;;;;;28.69;35.77;95346.84;5074464;28;20370;-66
2021/08/06 12:28:27;;;;;;;;;;;;;;;28.51;36.38;95348.25;5075294;28;19920;-66
2021/08/06 12:31:05;;;;;;;;;;;;;;;28.39;36.12;95342.63;5075182;28;20274;-66
2021/08/06 12:33:30;;;;;;;;;;;;;;;28.26;35.81;95346.84;5075346;28;19912;-66
2021/08/06 12:36:07;;;;;;;;;;;;;;;28.19;36.10;95346.00;5075063;28;20293;-66
2021/08/06 12:38:32;;;;;;;;;;;;;;;27.96;36.27;95359.72;5075076;28;19916;-66
2021/08/06 12:41:00;;;;;;;;;;;;;;;27.78;36.28;95370.97;5075050;28;20011;-66
2021/08/06 12:43:25;;;;;;;;;;;;;;;27.70;36.97;95359.34;5056829;28;20341;-66
2021/08/06 12:46:09;;;;;;;;;;;;;;;27.71;36.81;95358.31;5074934;28;19954;-66
2021/08/06 12:48:35;;;;;;;;;;;;;;;27.67;37.53;95361.59;5075004;28;19913;-66
2021/08/06 12:51:17;;;;;;;;;;;;;;;27.74;40.87;95371.34;5074743;28;19965;-69
2021/08/06 12:53:42;;;;;;;;;;;;;;;27.69;44.70;95376.47;5074672;28;19922;-70
2021/08/06 12:56:08;;;;;;;;;;;;;;;27.34;48.48;95395.16;5074649;28;19916;-69
2021/08/06 12:58:33;;;;;;;;;;;;;;;27.09;47.46;95395.53;5074665;28;20031;-69
2021/08/06 13:01:00;;;;;;;;;;;;;;;26.97;50.10;95398.66;5074827;28;19920;-68
2021/08/06 13:03:26;;;;;;;;;;;;;;;26.63;47.48;95389.41;5074715;28;19963;-68